Impacts TAF Board
For situational awareness. Not to be used for flight planning purposes.
IDs:

KLAX - Los Angeles Intl, CA, US

Issued at 1121 UTC 21 Sep 2018
Updated at 1214 UTC 21 Sep 2018
Potential Impact None Slight Moderate High
Time1153Z 21/13Z 21/14Z 21/15Z 21/16Z 21/17Z 21/18Z 21/19Z 21/20Z 21/21Z 21/22Z 21/23Z 22/00Z 22/01Z>>
Type OBS PRVL PRVL PRVL PRVL PRVL PRVL PRVL PRVL PRVL PRVL PRVL PRVL PRVL
VIS 10 >6 >6 >6 >6 >6 >6 >6 >6 >6 >6 >6 >6 >6
CIG 14 14 14 14 15 15 15 -- -- -- -- -- -- --
Cover BKN OVC OVC OVC OVC OVC OVC FEW FEW FEW FEW FEW FEW FEW
FltCat MVFR MVFR MVFR MVFR MVFR MVFR MVFR VFR VFR VFR VFR VFR VFR VFR
WX -- -- -- -- -- -- -- -- -- -- -- -- -- --
WDir 80 VRB VRB VRB 230 230 230 250 250 250 250 250 250 250
WSpd 3 3 3 3 6 6 6 12 12 12 12 12 12 12
WGst -- -- -- -- -- -- -- -- -- -- -- -- -- --
Raw TAF
KLAX 211121Z 2112/2218 VRB03KT P6SM OVC014
  FM211600 23006KT P6SM OVC015
  FM211900 25012KT P6SM FEW020
  FM220600 VRB03KT P6SM OVC015
  FM221500 VRB03KT P6SM OVC021
  FM221700 23006KT P6SM SCT024


Raw METAR
KLAX 211153Z 08003KT 10SM BKN014 18/16 A2995 RMK AO2 SLP138 T01830156 10200 20183 51001
KLAX 211053Z 00000KT 10SM BKN014 19/16 A2995 RMK AO2 SLP138 T01890156
KLAX 210953Z 03003KT 10SM OVC014 19/16 A2995 RMK AO2 SLP138 T01890156
KLAX 210945Z 11007KT 10SM OVC014 19/16 A2995 RMK AO2 T01940156

METAR Board
Radar Display
Forecast Discussion
For situational awareness. Not to be used for flight planning purposes.